Smugglers Notch, Vermont
Current Conditions -  °F | °C
As of 2:54 PM on Monday 24 Nov 2014 (Local Time) from KBTV Reporting Station
Few Clouds Few Clouds  
Wind Chill: 67°   Ceiling: Unl
Heat Index: 67°   Visibility: 10mi
Dew Point: 57°   Wind: 15mph
Humidity: 70%   Direction: 180°S
Pressure: 29.36"   Gusts: 29mph
Location:  44.6639°N, 72.7787°W
Report Text: KBTV 241954Z 18013G25KT 10SM FEW025 FEW050 19/14 A2936 RMK AO2 PK WND 19028/1924 SLP943 T01940139
Loading
Personal Weather Stations






























Interactive Weather Map New forecast layout! Learn more

10-Day Weather Forecast

Advertisements
Track Severe Weather on mobile